< < Back
Terminal Aerodrome Forecast


Current Version              Previous Versions:   1  2  3  4  5  6  7  8  9  

Terminal Aerodrome Forecast

832
FTUS42 KCHS 300532
TAFSAV
TAF
KSAV 300532Z 3006/0106 VRB03KT P6SM SCT250
     FM300900 VRB03KT 6SM MIFG FEW006 SCT010
      TEMPO 3009/3011 5SM MIFG SCT004
     FM301230 14006KT P6SM FEW012
     FM301800 14012G18KT P6SM FEW040
     FM302300 14005KT P6SM FEW040=



Latest METAR

601
SAUS80 KWBC 301700
MTRSAV
METAR KSAV 301653Z 15010KT 10SM FEW030 BKN250 29/18 A3002 RMK AO2 SLP164
T02940178 $


USA.gov is the U.S. government's official web portal to all federal, state and local government web resources and services.